Rhonda Lamulle — WDC8441 — position and weather

sailwx.info

Track history (hours):
 
Tides and Currents Weather Stations Pressure Air Temp Water Temp Dewpoint Dewpoint Depression Visibility Wind Speed Wind Dir Waves Ship Positions

Rhonda Lamulle

Owner: Florida Marine Transporters, Inc., Mandeville, LA. More information available from US FCC via Universal Licensing System and Coast Guard Vessel Documentation Center.

Last reported at 2015-Feb-28 13:33 UTC. Time now 2015-Mar-01 06:55 UTC.
Position N 30°25' W 086°11'.

Length 27 m; draft 3 m.

Type: Towing. MMSI: 367087160.

Date/timePositionNaut miles runAvg speedWind from/ knotsBaromVisibWave heightAir tempDewpointWater temp
2015-Feb-28 13:33N 30°25' W 086°11'5 5.5
2015-Feb-28 12:34N 30°26' W 086°17'6 5.6
2015-Feb-28 11:33N 30°26' W 086°24'6 5.7
2015-Feb-28 10:34N 30°25' W 086°30'5 5.2
2015-Feb-28 09:32N 30°24' W 086°36'4 4.1
2015-Feb-28 08:32N 30°24' W 086°41'4 4.5
2015-Feb-28 07:34N 30°24' W 086°46'5 5.4
2015-Feb-28 06:33N 30°24' W 086°52'6 5.5
2015-Feb-28 05:29N 30°23' W 086°59'  
2015-Feb-24 18:32N 30°02' W 089°52'8 7.6
2015-Feb-24 17:32N 29°60' W 090°01'2 1.1
2015-Feb-24 15:26N 29°57' W 090°02'2 0.2
2015-Feb-24 05:32N 29°56' W 089°59'1 0.3
2015-Feb-24 01:06N 29°55' W 089°59'6 2.5
2015-Feb-23 22:32N 29°50' W 090°04'1 0.0
2015-Feb-22 17:09N 29°50' W 090°03'0 0.0
2015-Feb-22 15:32N 29°50' W 090°03'0 0.0
2015-Feb-22 14:23N 29°50' W 090°03'0 0.0
2015-Feb-22 13:24N 29°50' W 090°03'0 0.0
2015-Feb-22 12:25N 29°50' W 090°03'0 0.0
2015-Feb-22 10:27N 29°50' W 090°03'0 0.0
2015-Feb-21 13:29N 29°50' W 090°03'0 0.0
2015-Feb-21 01:31N 29°50' W 090°03'164 3.8
2015-Feb-19 06:18N 30°23' W 086°57'4 5.8
2015-Feb-19 05:33N 30°24' W 086°52'6 5.6
2015-Feb-19 04:33N 30°24' W 086°46'5 5.1
2015-Feb-19 03:30N 30°24' W 086°40'4 4.4
2015-Feb-19 02:33N 30°24' W 086°35'5 5.3
2015-Feb-19 01:33N 30°26' W 086°29'3 2.8
2015-Feb-19 00:34N 30°29' W 086°29'0 0.2
2015-Feb-18 23:34N 30°29' W 086°29'0 0.0
2015-Feb-18 22:34N 30°29' W 086°29'0 0.0
2015-Feb-18 21:34N 30°29' W 086°29'0 0.0
2015-Feb-18 20:33N 30°29' W 086°29'0 0.0
2015-Feb-18 19:34N 30°29' W 086°29'0 0.0
2015-Feb-18 18:33N 30°29' W 086°29'0 0.0
2015-Feb-18 17:33N 30°29' W 086°29'0 0.0
2015-Feb-18 16:34N 30°29' W 086°29'0 0.0
2015-Feb-18 15:34N 30°29' W 086°29'0 0.0
2015-Feb-18 14:33N 30°29' W 086°29'  
Track history (hours):
 
Tides and Currents Weather Stations Pressure Air Temp Water Temp Dewpoint Dewpoint Depression Visibility Wind Speed Wind Dir Waves Ship Positions

Rhonda Lamulle

Owner: Florida Marine Transporters, Inc., Mandeville, LA. More information available from US FCC via Universal Licensing System and Coast Guard Vessel Documentation Center.

Last reported at 2015-Feb-28 13:33 UTC. Time now 2015-Mar-01 06:55 UTC.
Position N 30°25' W 086°11'.

Length 27 m; draft 3 m.

Type: Towing. MMSI: 367087160.

Date/timePositionNaut miles runAvg speedWind from/ knotsBaromVisibWave heightAir tempDewpointWater temp
2015-Feb-28 13:33N 30°25' W 086°11'5 5.5
2015-Feb-28 12:34N 30°26' W 086°17'6 5.6
2015-Feb-28 11:33N 30°26' W 086°24'6 5.7
2015-Feb-28 10:34N 30°25' W 086°30'5 5.2
2015-Feb-28 09:32N 30°24' W 086°36'4 4.1
2015-Feb-28 08:32N 30°24' W 086°41'4 4.5
2015-Feb-28 07:34N 30°24' W 086°46'5 5.4
2015-Feb-28 06:33N 30°24' W 086°52'6 5.5
2015-Feb-28 05:29N 30°23' W 086°59'  
2015-Feb-24 18:32N 30°02' W 089°52'8 7.6
2015-Feb-24 17:32N 29°60' W 090°01'2 1.1
2015-Feb-24 15:26N 29°57' W 090°02'2 0.2
2015-Feb-24 05:32N 29°56' W 089°59'1 0.3
2015-Feb-24 01:06N 29°55' W 089°59'6 2.5
2015-Feb-23 22:32N 29°50' W 090°04'1 0.0
2015-Feb-22 17:09N 29°50' W 090°03'0 0.0
2015-Feb-22 15:32N 29°50' W 090°03'0 0.0
2015-Feb-22 14:23N 29°50' W 090°03'0 0.0
2015-Feb-22 13:24N 29°50' W 090°03'0 0.0
2015-Feb-22 12:25N 29°50' W 090°03'0 0.0
2015-Feb-22 10:27N 29°50' W 090°03'0 0.0
2015-Feb-21 13:29N 29°50' W 090°03'0 0.0
2015-Feb-21 01:31N 29°50' W 090°03'164 3.8
2015-Feb-19 06:18N 30°23' W 086°57'4 5.8
2015-Feb-19 05:33N 30°24' W 086°52'6 5.6
2015-Feb-19 04:33N 30°24' W 086°46'5 5.1
2015-Feb-19 03:30N 30°24' W 086°40'4 4.4
2015-Feb-19 02:33N 30°24' W 086°35'5 5.3
2015-Feb-19 01:33N 30°26' W 086°29'3 2.8
2015-Feb-19 00:34N 30°29' W 086°29'0 0.2
2015-Feb-18 23:34N 30°29' W 086°29'0 0.0
2015-Feb-18 22:34N 30°29' W 086°29'0 0.0
2015-Feb-18 21:34N 30°29' W 086°29'0 0.0
2015-Feb-18 20:33N 30°29' W 086°29'0 0.0
2015-Feb-18 19:34N 30°29' W 086°29'0 0.0
2015-Feb-18 18:33N 30°29' W 086°29'0 0.0
2015-Feb-18 17:33N 30°29' W 086°29'0 0.0
2015-Feb-18 16:34N 30°29' W 086°29'0 0.0
2015-Feb-18 15:34N 30°29' W 086°29'0 0.0
2015-Feb-18 14:33N 30°29' W 086°29'  

Dump ship's entire track history